Time;durP1;ratioP1;P1;durP2;ratioP2;P2;SDS_P1;SDS_P2;PMS_P1;PMS_P2;Temp;Humidity;BMP_temperature;BMP_pressure;BME280_temperature;BME280_humidity;BME280_pressure;Samples;Min_cycle;Max_cycle;Signal;HPM_P1;HPM_P2
2022/11/08 00:02:31;;;;;;;32.53;22.57;;;;;;;14.81;72.94;95099.63;4959514;29;20280;-85
2022/11/08 00:15:53;;;;;;;31.83;21.97;;;;;;;14.69;73.19;95075.88;4932759;29;20219;-85
2022/11/08 00:18:20;;;;;;;28.33;22.03;;;;;;;14.52;73.15;95048.44;4931702;29;20193;-85
2022/11/08 00:20:47;;;;;;;31.60;22.77;;;;;;;14.76;73.07;95084.59;4937083;29;20395;-85
2022/11/08 00:23:14;;;;;;;30.67;22.80;;;;;;;14.79;73.23;95088.63;4935161;29;20195;-84
2022/11/08 00:25:41;;;;;;;31.47;21.67;;;;;;;14.78;73.32;95087.84;4922092;29;20192;-84
2022/11/08 00:28:08;;;;;;;29.87;22.87;;;;;;;14.78;73.27;95093.00;4913884;29;20285;-83
2022/11/08 00:30:35;;;;;;;31.90;22.63;;;;;;;14.74;73.32;95085.72;4913138;29;20591;-83
2022/11/08 00:33:03;;;;;;;33.10;22.53;;;;;;;14.76;73.45;95086.38;4912823;29;20211;-83
2022/11/08 00:35:30;;;;;;;32.20;20.90;;;;;;;14.74;73.35;95086.53;4912868;29;20587;-83
2022/11/08 00:37:57;;;;;;;32.47;24.00;;;;;;;14.73;73.50;95084.94;4929685;28;20211;-84
2022/11/08 00:40:23;;;;;;;37.10;23.47;;;;;;;14.70;73.41;95087.00;4972748;28;20785;-84
2022/11/08 00:42:50;;;;;;;29.33;21.83;;;;;;;14.63;73.21;95076.47;4972440;28;20194;-84
2022/11/08 00:45:17;;;;;;;29.17;20.87;;;;;;;14.71;73.50;95093.75;4971769;28;20715;-85
2022/11/08 00:47:44;;;;;;;28.30;22.07;;;;;;;14.67;73.46;95087.28;4971698;28;20204;-85
2022/11/08 00:50:12;;;;;;;31.77;21.63;;;;;;;14.56;73.34;95062.63;4971990;28;20688;-84
2022/11/08 00:52:39;;;;;;;33.43;22.40;;;;;;;14.68;73.51;95087.16;4971309;28;20198;-84
2022/11/08 00:55:07;;;;;;;31.47;21.87;;;;;;;14.46;73.55;95057.53;4971781;28;20233;-84
2022/11/08 00:57:33;;;;;;;29.27;22.07;;;;;;;14.67;73.48;95085.53;4971265;28;20229;-85
2022/11/08 01:00:00;;;;;;;30.20;21.07;;;;;;;14.48;73.45;95055.66;4972045;28;20194;-85
2022/11/08 01:02:27;;;;;;;31.87;21.50;;;;;;;14.67;73.50;95082.13;4962112;28;20209;-84
2022/11/08 01:04:54;;;;;;;29.90;21.63;;;;;;;14.66;73.59;95083.09;4952332;28;20194;-85
2022/11/08 01:07:22;;;;;;;29.70;21.20;;;;;;;14.60;73.61;95081.97;4953291;28;20188;-84
2022/11/08 01:09:49;;;;;;;28.67;22.73;;;;;;;14.65;73.56;95079.72;4966538;28;20438;-83
2022/11/08 01:12:19;;;;;;;31.47;21.13;;;;;;;14.53;73.47;95063.72;4973229;28;20201;-84
2022/11/08 01:14:45;;;;;;;28.50;21.60;;;;;;;14.61;73.51;95073.28;4975032;28;20232;-85
2022/11/08 01:17:12;;;;;;;28.10;21.00;;;;;;;14.60;73.51;95073.44;4972482;28;20194;-83
2022/11/08 01:19:39;;;;;;;33.37;22.93;;;;;;;14.64;73.77;95080.69;4972427;28;20213;-86
2022/11/08 01:22:06;;;;;;;29.53;22.63;;;;;;;14.50;73.69;95053.72;4971904;28;20190;-84
2022/11/08 01:24:34;;;;;;;27.60;21.80;;;;;;;14.27;73.71;95019.97;4971970;28;20193;-86
2022/11/08 01:27:01;;;;;;;32.20;23.07;;;;;;;14.46;73.62;95049.00;4971822;28;20571;-84
2022/11/08 01:29:28;;;;;;;31.60;22.50;;;;;;;14.39;73.61;95037.75;4972895;28;20201;-84
2022/11/08 01:31:55;;;;;;;30.33;22.63;;;;;;;14.59;73.91;95067.44;4976087;28;20205;-85
2022/11/08 01:34:22;;;;;;;31.20;22.30;;;;;;;14.43;73.70;95044.19;4976198;28;20653;-83
2022/11/08 01:36:48;;;;;;;31.67;21.90;;;;;;;14.63;73.87;95079.06;4975015;28;20245;-84
2022/11/08 01:39:15;;;;;;;26.80;19.70;;;;;;;14.63;73.85;95076.47;4975251;28;20182;-85
2022/11/08 01:41:44;;;;;;;29.07;22.10;;;;;;;14.60;73.73;95076.81;4975711;28;20661;-85
2022/11/08 01:44:16;;;;;;;27.53;21.37;;;;;;;14.62;73.79;95074.88;4976223;28;20195;-85
2022/11/08 01:46:45;;;;;;;30.67;22.20;;;;;;;14.63;73.84;95078.25;4977733;28;20194;-85
2022/11/08 01:49:32;;;;;;;29.90;22.33;;;;;;;14.58;73.84;95067.63;4977397;28;20190;-87
2022/11/08 01:52:05;;;;;;;30.03;21.57;;;;;;;14.63;73.92;95079.06;4975678;28;20192;-86
2022/11/08 01:54:36;;;;;;;29.60;21.20;;;;;;;14.61;73.96;95069.91;4975173;28;20684;-86
2022/11/08 01:57:08;;;;;;;29.27;21.97;;;;;;;14.58;73.83;95072.75;4975916;28;20240;-85
2022/11/08 01:59:37;;;;;;;31.33;22.00;;;;;;;14.43;73.88;95046.78;4975038;28;20192;-85
2022/11/08 02:02:04;;;;;;;32.23;23.80;;;;;;;14.47;73.92;95058.38;4974975;28;20190;-86
2022/11/08 02:04:32;;;;;;;31.80;22.20;;;;;;;14.59;73.96;95074.38;4976794;28;20200;-84
2022/11/08 02:06:59;;;;;;;30.97;22.73;;;;;;;14.63;74.01;95084.22;4975417;28;20189;-86
2022/11/08 02:09:28;;;;;;;27.80;21.43;;;;;;;14.16;73.98;95019.41;4975303;28;20193;-85
2022/11/08 02:11:55;;;;;;;29.77;20.90;;;;;;;14.64;73.99;95095.34;4974867;28;20189;-84
2022/11/08 02:14:24;;;;;;;27.80;21.27;;;;;;;14.64;73.89;95088.41;4974559;28;20577;-84
2022/11/08 02:16:51;;;;;;;32.00;21.43;;;;;;;14.56;74.08;95072.94;4975025;28;20225;-85
2022/11/08 02:19:29;;;;;;;30.70;22.50;;;;;;;14.65;74.18;95084.06;4974574;28;20252;-85
2022/11/08 02:22:01;;;;;;;28.23;20.73;;;;;;;14.64;74.05;95083.28;4974666;28;20201;-85
2022/11/08 02:24:29;;;;;;;28.10;20.83;;;;;;;14.42;74.13;95051.13;4975257;28;20190;-85
2022/11/08 02:26:57;;;;;;;30.03;21.57;;;;;;;14.64;74.21;95088.41;4975142;28;20193;-86
2022/11/08 02:29:31;;;;;;;28.83;21.33;;;;;;;14.54;74.24;95069.69;4974332;28;20205;-85
2022/11/08 02:32:00;;;;;;;27.13;21.73;;;;;;;14.64;74.34;95087.63;4974406;28;20200;-85
2022/11/08 02:34:30;;;;;;;30.53;21.10;;;;;;;14.51;74.18;95064.88;4974525;28;20200;-85
2022/11/08 02:36:58;;;;;;;27.60;21.20;;;;;;;14.65;74.26;95084.06;4974082;28;20701;-85
2022/11/08 02:39:25;;;;;;;35.10;22.60;;;;;;;14.63;74.27;95081.63;4974224;28;20220;-84
2022/11/08 02:41:54;;;;;;;31.27;22.00;;;;;;;14.60;74.33;95070.84;4973171;28;20289;-85
2022/11/08 02:44:20;;;;;;;28.97;21.23;;;;;;;14.64;74.33;95080.69;4974582;28;20281;-86
2022/11/08 02:46:47;;;;;;;32.60;21.20;;;;;;;14.52;74.18;95056.19;4974610;28;20189;-85
2022/11/08 02:49:14;;;;;;;27.13;20.63;;;;;;;14.65;74.42;95077.16;4974801;28;20640;-85
2022/11/08 02:51:41;;;;;;;30.93;21.70;;;;;;;14.66;74.18;95075.38;4975192;28;20197;-85
2022/11/08 02:54:08;;;;;;;29.73;21.13;;;;;;;14.67;74.39;95074.41;4977861;28;20194;-86
2022/11/08 02:56:37;;;;;;;27.87;21.17;;;;;;;14.67;74.48;95072.66;4977734;28;20245;-85
2022/11/08 02:59:06;;;;;;;29.70;20.77;;;;;;;14.58;74.26;95050.41;4978265;28;20197;-86
2022/11/08 03:01:32;;;;;;;30.50;21.33;;;;;;;14.67;74.33;95074.41;4979003;28;20197;-86
2022/11/08 03:04:00;;;;;;;28.23;20.67;;;;;;;14.50;74.36;95037.50;4978777;28;20201;-85
2022/11/08 03:06:27;;;;;;;26.83;19.70;;;;;;;14.68;74.51;95073.44;4983307;28;20178;-85
2022/11/08 03:08:54;;;;;;;25.77;20.50;;;;;;;14.51;74.60;95050.22;4998290;28;20212;-86
2022/11/08 03:11:20;;;;;;;28.63;20.90;;;;;;;14.45;74.27;95043.06;4999333;28;20174;-86
2022/11/08 03:13:48;;;;;;;26.77;19.47;;;;;;;14.69;74.53;95083.63;4998866;28;20182;-86
2022/11/08 03:16:16;;;;;;;26.23;20.17;;;;;;;14.51;74.45;95055.38;4997884;28;20285;-86
2022/11/08 03:18:43;;;;;;;27.50;20.10;;;;;;;14.68;74.71;95076.84;4990537;28;20197;-86
2022/11/08 03:21:11;;;;;;;26.30;19.77;;;;;;;14.68;74.56;95076.84;4974245;28;20285;-87
2022/11/08 03:23:37;;;;;;;29.87;21.07;;;;;;;14.67;74.55;95085.53;4973386;28;20201;-86
2022/11/08 03:26:05;;;;;;;27.60;18.97;;;;;;;14.66;74.62;95083.91;4973905;28;20198;-87
2022/11/08 03:28:32;;;;;;;29.17;21.37;;;;;;;14.71;74.56;95088.59;4973786;28;20193;-86
2022/11/08 03:30:59;;;;;;;26.90;19.30;;;;;;;14.71;74.34;95086.03;4974135;28;20198;-85
2022/11/08 03:33:28;;;;;;;24.37;19.33;;;;;;;14.70;74.57;95087.78;4974016;28;20214;-85
2022/11/08 03:35:55;;;;;;;27.50;20.30;;;;;;;14.67;74.65;95082.94;4973324;28;20612;-86
2022/11/08 03:38:21;;;;;;;29.27;20.03;;;;;;;14.71;74.78;95091.19;4974532;28;20198;-84
2022/11/08 03:40:48;;;;;;;26.90;19.40;;;;;;;14.71;74.75;95094.56;4975433;28;20201;-85
2022/11/08 03:43:15;;;;;;;24.87;19.67;;;;;;;14.72;74.75;95093.63;4975962;28;20201;-86
2022/11/08 03:45:42;;;;;;;29.50;20.47;;;;;;;14.52;74.72;95061.31;4974283;28;20204;-87
2022/11/08 03:48:09;;;;;;;28.43;21.13;;;;;;;14.73;74.91;95097.00;4974429;28;20280;-86
2022/11/08 03:50:37;;;;;;;28.37;19.20;;;;;;;14.45;75.01;95048.22;4984671;28;20197;-86
2022/11/08 03:53:04;;;;;;;26.37;19.83;;;;;;;14.68;74.90;95088.91;4986230;28;20194;-85
2022/11/08 03:55:31;;;;;;;27.57;20.80;;;;;;;14.73;75.09;95102.94;4985359;28;20217;-86
2022/11/08 03:57:58;;;;;;;26.87;20.43;;;;;;;14.74;75.14;95098.59;4984625;28;20229;-87
2022/11/08 04:00:27;;;;;;;30.70;21.33;;;;;;;14.73;75.15;95102.94;4973873;28;20181;-86
2022/11/08 04:02:55;;;;;;;31.20;22.13;;;;;;;14.73;75.21;95092.66;4973338;28;20201;-85
2022/11/08 04:05:22;;;;;;;34.23;21.53;;;;;;;14.69;75.59;95091.34;4973150;28;20194;-86
2022/11/08 04:07:50;;;;;;;35.57;24.97;;;;;;;14.74;75.51;95093.44;4972476;28;20197;-85
2022/11/08 04:10:17;;;;;;;31.03;22.97;;;;;;;14.68;75.35;95083.75;4973173;28;20190;-85
2022/11/08 04:15:35;;;;;;;33.80;25.33;;;;;;;14.73;75.58;95089.25;4992096;28;20313;-85
2022/11/08 04:23:37;;;;;;;35.83;24.60;;;;;;;14.60;75.98;95066.50;4912684;29;20754;-86
2022/11/08 04:26:06;;;;;;;33.57;24.47;;;;;;;14.70;75.89;95074.91;4912831;29;20195;-86
2022/11/08 04:28:35;;;;;;;33.57;26.50;;;;;;;14.70;75.96;95074.91;4912892;29;20220;-85
2022/11/08 04:31:05;;;;;;;37.03;26.90;;;;;;;14.63;76.28;95068.75;4913048;29;20639;-86
2022/11/08 04:33:32;;;;;;;34.60;26.20;;;;;;;14.55;76.26;95058.44;4912376;29;20207;-85
2022/11/08 04:36:01;;;;;;;35.33;27.30;;;;;;;14.53;76.24;95056.00;4912063;29;20223;-86
2022/11/08 04:38:28;;;;;;;36.00;26.77;;;;;;;14.61;76.30;95064.75;4912149;29;20259;-86
2022/11/08 04:41:01;;;;;;;34.07;27.67;;;;;;;14.71;76.30;95080.88;4912477;29;20208;-84
2022/11/08 04:43:28;;;;;;;36.37;27.07;;;;;;;14.71;76.21;95079.09;4912392;29;20281;-85
2022/11/08 04:45:59;;;;;;;39.50;27.37;;;;;;;14.66;76.46;95075.38;4912367;29;20663;-86
2022/11/08 04:48:26;;;;;;;36.37;26.90;;;;;;;14.53;76.42;95052.63;4912752;29;20203;-86
2022/11/08 04:50:52;;;;;;;41.43;27.40;;;;;;;14.73;76.45;95084.13;4912372;29;20203;-84
2022/11/08 04:53:19;;;;;;;34.47;26.80;;;;;;;14.72;76.56;95093.63;4912816;29;20640;-86
2022/11/08 04:55:46;;;;;;;38.10;27.30;;;;;;;14.71;76.49;95094.56;4912964;29;20230;-85
2022/11/08 04:58:15;;;;;;;35.80;27.07;;;;;;;14.72;76.75;95103.06;4946961;28;20226;-85
2022/11/08 05:00:42;;;;;;;39.07;27.33;;;;;;;14.72;76.53;95103.91;4971326;28;20201;-86
2022/11/08 05:03:09;;;;;;;38.07;26.43;;;;;;;14.62;76.63;95082.59;4979179;28;20192;-85
2022/11/08 05:06:04;;;;;;;36.47;25.93;;;;;;;14.72;76.83;95097.94;4993785;28;20190;-86
2022/11/08 05:08:32;;;;;;;33.43;26.80;;;;;;;14.42;76.61;95051.13;4983446;28;20561;-85
2022/11/08 05:11:03;;;;;;;39.00;26.63;;;;;;;14.58;76.94;95080.47;4976593;28;20200;-85
2022/11/08 05:13:34;;;;;;;32.70;25.73;;;;;;;14.71;76.91;95112.56;4975794;28;20363;-85
2022/11/08 05:16:04;;;;;;;38.73;27.03;;;;;;;14.60;77.08;95091.44;4975445;28;20225;-85
2022/11/08 05:25:07;;;;;;;34.90;25.90;;;;;;;14.72;76.81;95103.06;4823636;29;20259;-84
2022/11/08 05:27:34;;;;;;;32.17;26.13;;;;;;;14.72;77.16;95098.75;4822148;29;20748;-86
2022/11/08 05:30:07;;;;;;;35.93;24.67;;;;;;;14.66;77.23;95094.22;4821982;29;20715;-84
2022/11/08 05:32:33;;;;;;;32.63;25.20;;;;;;;14.62;77.11;95084.38;4822400;29;20239;-84
2022/11/08 05:35:00;;;;;;;35.10;24.17;;;;;;;14.74;77.33;95099.41;4822555;29;20210;-84
2022/11/08 05:37:27;;;;;;;36.90;25.87;;;;;;;14.79;77.17;95098.94;4824225;29;20254;-82
2022/11/08 05:40:11;;;;;;;31.00;24.40;;;;;;;14.80;77.52;95096.19;4825275;29;20691;-89
2022/11/08 05:42:38;;;;;;;32.27;23.77;;;;;;;14.60;77.28;95068.28;4823180;29;20264;-84
2022/11/08 05:45:10;;;;;;;33.20;24.93;;;;;;;14.84;77.22;95104.44;4824012;29;20199;-84
2022/11/08 05:47:37;;;;;;;32.70;24.10;;;;;;;14.58;77.16;95065.84;4822853;29;20234;-85
2022/11/08 05:50:05;;;;;;;31.47;24.23;;;;;;;14.88;77.18;95113.47;4823793;29;20206;-84
2022/11/08 05:52:32;;;;;;;31.20;23.43;;;;;;;14.90;77.15;95124.44;4821937;29;20199;-83
2022/11/08 05:54:59;;;;;;;33.53;22.23;;;;;;;14.82;77.13;95103.00;4821972;29;20654;-83
2022/11/08 05:57:26;;;;;;;33.93;23.23;;;;;;;14.95;77.27;95118.81;4830487;29;20222;-83
2022/11/08 05:59:53;;;;;;;29.03;23.37;;;;;;;14.81;77.05;95099.63;4915285;29;20195;-85
2022/11/08 06:02:21;;;;;;;28.57;22.57;;;;;;;14.98;76.97;95129.63;4950084;29;20717;-82
2022/11/08 06:04:49;;;;;;;33.90;23.20;;;;;;;15.04;77.15;95135.94;4960182;28;20196;-85
2022/11/08 06:07:16;;;;;;;29.90;22.27;;;;;;;14.89;77.09;95112.50;4974212;28;20205;-85
2022/11/08 06:09:43;;;;;;;31.90;22.03;;;;;;;15.02;76.90;95125.75;4975468;28;20561;-85
2022/11/08 06:12:09;;;;;;;37.10;24.33;;;;;;;15.12;77.10;95135.97;4974347;28;20198;-80
2022/11/08 06:14:36;;;;;;;36.77;24.03;;;;;;;15.06;77.27;95127.06;4974287;28;20182;-83
2022/11/08 06:17:03;;;;;;;37.07;26.20;;;;;;;15.20;77.65;95145.50;4976630;28;20573;-87
2022/11/08 06:19:31;;;;;;;35.27;24.47;;;;;;;15.22;78.48;95139.22;4978355;28;20290;-81
2022/11/08 06:21:58;;;;;;;39.43;24.07;;;;;;;15.30;78.79;95141.03;4967762;28;20193;-83
2022/11/08 06:24:25;;;;;;;38.57;26.10;;;;;;;15.30;78.98;95143.59;4974052;28;20201;-82
2022/11/08 06:26:52;;;;;;;33.27;24.47;;;;;;;15.21;79.70;95116.19;4975601;28;20202;-87
2022/11/08 06:29:19;;;;;;;38.80;25.50;;;;;;;15.49;79.90;95150.25;4979037;28;20296;-88
2022/11/08 06:31:46;;;;;;;31.43;22.73;;;;;;;15.53;80.18;95160.09;4983551;28;20208;-86
2022/11/08 06:34:13;;;;;;;34.53;22.37;;;;;;;15.47;80.91;95147.84;4988163;28;20257;-87
2022/11/08 06:36:42;;;;;;;33.50;23.00;;;;;;;15.63;81.37;95167.72;4984994;28;20229;-89
2022/11/08 06:39:09;;;;;;;36.50;23.53;;;;;;;15.18;81.80;95083.81;4990350;28;20198;-88
2022/11/08 06:41:37;;;;;;;32.83;23.93;;;;;;;15.71;82.01;95167.75;4991741;28;20194;-85
2022/11/08 06:44:05;;;;;;;29.90;22.47;;;;;;;15.75;81.93;95166.47;4992274;28;20219;-83
2022/11/08 06:46:32;;;;;;;36.00;23.50;;;;;;;15.80;81.88;95171.16;4992178;28;20201;-85
2022/11/08 06:49:02;;;;;;;27.73;21.20;;;;;;;15.85;81.80;95168.13;4992825;28;20197;-83
2022/11/08 06:51:34;;;;;;;31.90;23.70;;;;;;;15.88;81.62;95171.19;4992281;28;20202;-84
2022/11/08 06:54:05;;;;;;;30.90;22.53;;;;;;;15.91;81.53;95178.59;4978539;28;20205;-86
2022/11/08 06:56:33;;;;;;;27.77;21.27;;;;;;;15.94;81.34;95172.34;4974648;28;20249;-89
2022/11/08 06:59:00;;;;;;;31.23;22.37;;;;;;;15.88;81.20;95152.31;4978351;28;20221;-87
2022/11/08 07:01:27;;;;;;;31.53;21.67;;;;;;;15.99;80.88;95173.47;4983208;28;20209;-88
2022/11/08 07:03:54;;;;;;;29.27;21.67;;;;;;;15.85;80.73;95144.91;4991909;28;20204;-86
2022/11/08 07:06:20;;;;;;;29.30;21.93;;;;;;;16.04;80.45;95180.72;4984629;28;20194;-89
2022/11/08 07:08:48;;;;;;;32.20;20.77;;;;;;;15.98;80.39;95165.91;4976710;28;20620;-88
2022/11/08 07:11:18;;;;;;;28.23;21.23;;;;;;;16.02;80.25;95175.75;4976016;28;20208;-88
2022/11/08 07:13:49;;;;;;;30.23;20.67;;;;;;;15.67;79.89;95108.91;4975038;28;20640;-87
2022/11/08 07:16:18;;;;;;;28.30;20.43;;;;;;;16.11;79.91;95181.72;4974839;28;20232;-86
2022/11/08 07:18:44;;;;;;;27.30;20.27;;;;;;;16.12;79.91;95183.31;4972604;28;20196;-86
2022/11/08 07:21:13;;;;;;;27.60;21.20;;;;;;;16.14;79.65;95181.38;4973072;28;20205;-86
2022/11/08 07:23:43;;;;;;;32.93;21.70;;;;;;;15.88;79.64;95137.66;4971473;28;20197;-86
2022/11/08 07:26:11;;;;;;;26.97;20.87;;;;;;;15.99;79.38;95146.88;4972281;28;20688;-84
2022/11/08 07:28:40;;;;;;;25.03;20.47;;;;;;;16.11;79.52;95171.41;4971571;28;20232;-85
2022/11/08 07:31:07;;;;;;;25.43;18.70;;;;;;;15.91;79.11;95139.91;4972068;28;20198;-83
2022/11/08 07:33:37;;;;;;;27.43;22.03;;;;;;;16.22;79.02;95189.13;4972527;28;20582;-86
2022/11/08 07:36:06;;;;;;;23.53;19.37;;;;;;;16.06;79.01;95155.56;4972426;28;20206;-83
2022/11/08 07:38:33;;;;;;;25.70;19.57;;;;;;;16.24;78.84;95187.22;4970047;28;20285;-84
2022/11/08 07:41:01;;;;;;;28.43;19.50;;;;;;;16.27;78.75;95189.44;4972997;28;20190;-86
2022/11/08 07:43:29;;;;;;;25.40;19.50;;;;;;;16.29;78.77;95190.13;4972906;28;20244;-87
2022/11/08 07:45:59;;;;;;;24.77;19.70;;;;;;;16.30;78.49;95183.97;4972768;28;20682;-84
2022/11/08 07:48:28;;;;;;;26.07;19.50;;;;;;;16.17;78.47;95162.19;4972175;28;20206;-85
2022/11/08 07:50:55;;;;;;;26.33;19.20;;;;;;;16.35;78.31;95186.06;4972741;28;20206;-87
2022/11/08 07:53:22;;;;;;;24.27;19.03;;;;;;;16.38;78.31;95188.34;4973513;28;20205;-89
2022/11/08 07:55:49;;;;;;;27.60;19.20;;;;;;;16.39;78.06;95187.38;4973140;28;20201;-86
2022/11/08 07:58:16;;;;;;;27.87;20.17;;;;;;;16.23;77.96;95158.97;4975276;28;20241;-89
2022/11/08 08:00:48;;;;;;;27.87;19.30;;;;;;;16.21;78.05;95148.00;4972678;28;20675;-83
2022/11/08 08:03:18;;;;;;;22.33;18.13;;;;;;;16.40;77.75;95170.09;4972029;28;20237;-85
2022/11/08 08:05:51;;;;;;;25.77;18.83;;;;;;;16.47;77.84;95177.03;4974142;28;20284;-84
2022/11/08 08:11:21;;;;;;;25.07;18.67;;;;;;;16.58;77.43;95190.59;4932958;29;20198;-89
2022/11/08 08:13:48;;;;;;;23.97;18.00;;;;;;;16.62;77.43;95190.09;4942643;29;20210;-85
2022/11/08 08:16:23;;;;;;;23.40;17.60;;;;;;;16.67;77.38;95182.69;4943251;29;20198;-85
2022/11/08 08:18:53;;;;;;;22.43;17.93;;;;;;;16.24;76.95;95109.78;4940642;29;20328;-86
2022/11/08 08:24:15;;;;;;;22.03;17.00;;;;;;;16.82;76.79;95193.19;4939529;29;20214;-86
2022/11/08 08:26:45;;;;;;;22.33;16.83;;;;;;;16.88;76.67;95191.72;4935725;29;20206;-88
2022/11/08 08:29:11;;;;;;;21.77;17.37;;;;;;;16.92;76.69;95191.22;4947160;29;20292;-85
2022/11/08 08:31:40;;;;;;;24.67;17.23;;;;;;;16.95;76.28;95196.06;4947357;29;20191;-86
2022/11/08 08:34:08;;;;;;;20.30;16.70;;;;;;;16.99;76.30;95187.03;4934126;29;20191;-84
2022/11/08 08:36:35;;;;;;;23.80;16.40;;;;;;;16.98;76.37;95185.41;4933133;29;20206;-84
2022/11/08 08:39:01;;;;;;;22.73;16.00;;;;;;;17.08;76.21;95192.19;4943594;28;20206;-83
2022/11/08 08:41:31;;;;;;;23.27;16.53;;;;;;;17.11;76.20;95190.06;4936632;29;20206;-84
2022/11/08 08:43:58;;;;;;;23.13;15.93;;;;;;;16.98;76.17;95171.69;4941821;29;20684;-85
2022/11/08 08:46:25;;;;;;;21.77;16.53;;;;;;;17.07;75.86;95172.47;4936326;29;20203;-83
2022/11/08 08:48:52;;;;;;;22.40;15.73;;;;;;;17.19;75.88;95187.47;4965622;28;20212;-84
2022/11/08 08:51:20;;;;;;;22.20;15.67;;;;;;;16.79;75.65;95128.94;4976652;28;20566;-83
2022/11/08 08:53:47;;;;;;;21.73;15.50;;;;;;;17.32;75.50;95202.47;4977157;28;20262;-84
2022/11/08 08:56:14;;;;;;;19.40;15.27;;;;;;;17.10;75.65;95161.78;4976712;28;20200;-83
2022/11/08 08:58:41;;;;;;;19.13;15.03;;;;;;;17.37;75.48;95205.34;4976527;28;20243;-83
2022/11/08 09:01:11;;;;;;;21.37;15.93;;;;;;;17.32;75.50;95183.56;4983903;28;20190;-84
2022/11/08 09:03:41;;;;;;;21.90;15.50;;;;;;;17.40;75.21;95183.50;4995847;28;20202;-81
2022/11/08 09:06:08;;;;;;;18.03;14.40;;;;;;;17.53;75.17;95204.50;4995361;28;20213;-83
2022/11/08 09:08:46;;;;;;;24.17;17.20;;;;;;;17.37;75.18;95169.16;4989060;28;20189;-84
2022/11/08 09:11:12;;;;;;;22.60;16.03;;;;;;;17.55;74.94;95190.41;4976675;28;20201;-82
2022/11/08 09:13:39;;;;;;;20.20;15.53;;;;;;;17.66;74.88;95199.59;4980627;28;20196;-82
2022/11/08 09:16:09;;;;;;;21.13;15.43;;;;;;;17.61;74.60;95185.53;4978484;28;20281;-82
2022/11/08 09:18:38;;;;;;;20.40;15.60;;;;;;;17.67;74.51;95184.88;4976053;28;20244;-83
2022/11/08 09:21:06;;;;;;;21.23;15.13;;;;;;;17.78;74.63;95200.81;4976265;28;20186;-81
2022/11/08 09:23:41;;;;;;;22.17;15.63;;;;;;;17.83;74.28;95196.91;4976202;28;20197;-82
2022/11/08 09:26:11;;;;;;;19.73;15.00;;;;;;;17.65;74.15;95164.31;4976209;28;20192;-82
2022/11/08 09:28:38;;;;;;;21.37;15.70;;;;;;;17.94;74.01;95205.13;4982356;28;20190;-82
2022/11/08 09:31:07;;;;;;;19.43;16.30;;;;;;;17.71;73.88;95155.09;4976951;28;20206;-83
2022/11/08 09:33:35;;;;;;;21.90;16.33;;;;;;;18.00;73.55;95194.09;4975922;28;20229;-84
2022/11/08 09:36:03;;;;;;;22.90;16.20;;;;;;;18.01;73.50;95187.94;4976227;28;20198;-83
2022/11/08 09:38:32;;;;;;;21.13;15.90;;;;;;;18.09;73.49;95181.91;4976189;28;20221;-90
2022/11/08 09:41:18;;;;;;;19.23;15.17;;;;;;;18.24;73.24;95198.28;4984332;28;20197;-88
2022/11/08 09:44:00;;;;;;;18.57;15.50;;;;;;;18.09;73.10;95153.44;4977478;28;20202;-84
2022/11/08 09:46:37;;;;;;;20.57;15.43;;;;;;;18.38;72.97;95188.16;4978359;28;20657;-86
2022/11/08 09:49:13;;;;;;;17.10;14.30;;;;;;;18.37;72.77;95176.22;4979764;28;20217;-85
2022/11/08 09:51:44;;;;;;;17.90;14.80;;;;;;;18.50;72.73;95190.19;4987261;28;20202;-83
2022/11/08 09:54:23;;;;;;;20.53;15.07;;;;;;;18.47;72.67;95169.78;4990205;28;20188;-85
2022/11/08 09:56:55;;;;;;;19.63;15.07;;;;;;;18.45;72.38;95155.44;4989080;28;20292;-84
2022/11/08 09:59:32;;;;;;;18.60;15.47;;;;;;;18.69;72.41;95188.91;4990373;28;20205;-83
2022/11/08 10:02:00;;;;;;;18.67;15.30;;;;;;;18.57;72.21;95151.44;4990246;28;20177;-83
2022/11/08 10:04:30;;;;;;;18.63;14.57;;;;;;;18.80;71.96;95183.31;4986045;28;20217;-84
2022/11/08 10:07:15;;;;;;;22.37;15.03;;;;;;;18.88;71.77;95176.44;4984110;28;20274;-83
2022/11/08 10:10:04;;;;;;;19.00;14.47;;;;;;;18.89;71.54;95165.91;4984194;28;20278;-86
2022/11/08 10:12:42;;;;;;;21.83;15.33;;;;;;;19.02;71.65;95167.88;4984897;28;20202;-83
2022/11/08 10:15:20;;;;;;;18.80;13.87;;;;;;;18.83;71.28;95119.97;4988135;28;20224;-84
2022/11/08 10:18:04;;;;;;;19.63;14.73;;;;;;;19.21;71.16;95163.94;4992366;28;20228;-82
2022/11/08 10:20:48;;;;;;;22.30;15.30;;;;;;;19.16;70.76;95135.94;4994019;28;20201;-88
2022/11/08 10:23:27;;;;;;;22.10;15.17;;;;;;;19.08;70.57;95102.34;4992731;28;20252;-89
2022/11/08 10:25:58;;;;;;;18.63;13.43;;;;;;;19.00;70.15;95076.53;4988643;28;20272;-86
2022/11/08 10:28:33;;;;;;;20.60;14.80;;;;;;;19.10;70.08;95076.25;4985970;28;20254;-89
2022/11/08 10:31:01;;;;;;;17.30;14.40;;;;;;;19.61;69.78;95141.13;4983954;28;20193;-86
2022/11/08 10:33:35;;;;;;;19.63;14.30;;;;;;;19.65;69.66;95122.41;4982333;28;20204;-86
2022/11/08 10:36:10;;;;;;;19.53;13.53;;;;;;;19.92;69.11;95140.88;4979781;28;20203;-85
2022/11/08 10:38:47;;;;;;;16.00;14.17;;;;;;;20.01;69.23;95140.56;4981364;28;20313;-88
2022/11/08 10:41:27;;;;;;;18.83;13.95;;;;;;;20.10;69.00;95145.63;4992442;28;20229;-86
2022/11/08 10:44:05;;;;;;;16.97;14.17;;;;;;;20.16;68.65;95130.09;4995043;28;20241;-89
2022/11/08 10:46:44;;;;;;;16.73;13.97;;;;;;;20.27;68.26;95127.00;4994030;28;20273;-87
2022/11/08 10:49:21;;;;;;;17.40;12.43;;;;;;;20.17;68.12;95099.75;4995385;28;20197;-91
2022/11/08 10:51:51;;;;;;;16.50;13.25;;;;;;;20.48;67.95;95139.22;4991452;28;20205;-86
2022/11/08 10:54:55;;;;;;;16.20;14.20;;;;;;;20.51;67.63;95132.84;4994833;28;20249;-90
2022/11/08 10:57:25;;;;;;;17.30;13.93;;;;;;;20.46;67.55;95112.56;4934245;29;20231;-92
2022/11/08 10:59:54;;;;;;;20.40;15.00;;;;;;;20.57;67.70;95129.47;4933601;29;20203;-89
2022/11/08 11:02:27;;;;;;;16.13;14.38;;;;;;;20.38;67.46;95093.72;4930009;29;20211;-87
2022/11/08 11:05:21;;;;;;;17.38;14.10;;;;;;;20.53;67.10;95126.44;4938784;29;20187;-89
2022/11/08 11:08:04;;;;;;;15.82;13.57;;;;;;;20.50;66.96;95128.63;4936630;29;20191;-89
2022/11/08 11:10:33;;;;;;;17.23;14.27;;;;;;;20.26;66.73;95080.47;4930369;29;20207;-84
2022/11/08 11:13:04;;;;;;;16.40;12.80;;;;;;;20.46;66.46;95109.97;4928273;29;20199;-87
2022/11/08 11:15:37;;;;;;;17.67;13.02;;;;;;;20.46;66.53;95104.78;4914668;29;20219;-88
2022/11/08 11:18:06;;;;;;;16.10;13.68;;;;;;;20.54;66.70;95116.84;4916524;29;20235;-86
2022/11/08 11:20:33;;;;;;;18.67;13.30;;;;;;;20.41;66.56;95090.75;4914092;29;20203;-86
2022/11/08 11:23:03;;;;;;;17.55;14.30;;;;;;;20.60;66.34;95112.72;4918043;29;20203;-84
2022/11/08 11:25:30;;;;;;;15.80;13.35;;;;;;;20.59;66.41;95109.28;4916847;29;20192;-86
2022/11/08 11:28:01;;;;;;;14.88;12.95;;;;;;;20.36;66.66;95069.72;4916375;29;20199;-83
2022/11/08 11:30:31;;;;;;;17.65;13.30;;;;;;;20.65;66.05;95110.34;4915710;29;20192;-86
2022/11/08 11:33:02;;;;;;;19.45;13.68;;;;;;;20.66;65.92;95110.16;4945142;28;20232;-86
2022/11/08 11:35:41;;;;;;;14.63;12.70;;;;;;;20.69;65.84;95108.97;4973396;28;20662;-86
2022/11/08 11:38:19;;;;;;;14.85;13.25;;;;;;;20.70;65.71;95102.78;4969920;28;20217;-88
2022/11/08 11:41:03;;;;;;;17.10;12.77;;;;;;;20.53;65.58;95074.47;4973557;28;20244;-86
2022/11/08 11:43:37;;;;;;;15.10;12.48;;;;;;;20.47;65.56;95064.81;4973149;28;20260;-87
2022/11/08 11:46:13;;;;;;;18.33;13.43;;;;;;;20.74;65.42;95101.41;4973560;28;20232;-87
2022/11/08 11:48:46;;;;;;;16.30;12.27;;;;;;;20.28;65.19;95029.09;4969404;28;20189;-86
2022/11/08 11:51:14;;;;;;;14.83;12.40;;;;;;;20.60;65.06;95077.13;4971905;28;20232;-84
2022/11/08 11:53:42;;;;;;;14.85;12.13;;;;;;;20.72;64.91;95083.38;4972296;28;20635;-88
2022/11/08 11:56:46;;;;;;;15.18;12.52;;;;;;;20.54;64.65;95051.91;4971620;28;20225;-86
2022/11/08 11:59:46;;;;;;;16.08;12.77;;;;;;;20.72;64.69;95083.38;4929546;29;20227;-88
2022/11/08 12:02:50;;;;;;;13.73;11.75;;;;;;;20.79;64.47;95089.44;4873877;29;20197;-87